createdAt,value
2023-04-11T00:00:57.107Z,99764.00
2023-04-11T00:03:30.967Z,99766.00
2023-04-11T00:06:05.106Z,99765.00
2023-04-11T00:08:39.075Z,99760.00
2023-04-11T00:11:12.868Z,99753.00
2023-04-11T00:13:48.693Z,99763.00
2023-04-11T00:16:22.082Z,99754.00
2023-04-11T00:18:57.308Z,99754.00
2023-04-11T00:21:31.262Z,99761.00
2023-04-11T00:24:05.480Z,99767.00
2023-04-11T00:26:39.200Z,99751.00
2023-04-11T00:29:14.140Z,99751.00
2023-04-11T00:31:48.388Z,99763.00
2023-04-11T00:34:22.318Z,99755.00
2023-04-11T00:36:56.222Z,99750.00
2023-04-11T00:39:30.761Z,99753.00
2023-04-11T00:42:07.464Z,99754.00
2023-04-11T00:44:42.979Z,99772.00
2023-04-11T00:47:18.923Z,99751.00
2023-04-11T00:49:53.830Z,99750.00
2023-04-11T00:52:28.064Z,99737.00
2023-04-11T00:55:03.965Z,99737.00
2023-04-11T00:57:39.108Z,99740.00
2023-04-11T01:00:16.526Z,99742.00
2023-04-11T01:02:50.387Z,99747.00
2023-04-11T01:05:24.641Z,99751.00
2023-04-11T01:07:58.929Z,99759.00
2023-04-11T01:10:33.738Z,99766.00
2023-04-11T01:13:09.432Z,99752.00
2023-04-11T01:15:45.062Z,99755.00
2023-04-11T01:18:18.746Z,99755.00
2023-04-11T01:20:53.119Z,99748.00
2023-04-11T01:23:30.341Z,99751.00
2023-04-11T01:26:04.486Z,99740.00
2023-04-11T01:28:38.150Z,99755.00
2023-04-11T01:31:12.019Z,99733.00
2023-04-11T01:33:45.837Z,99738.00
2023-04-11T01:36:20.725Z,99740.00
2023-04-11T01:38:56.203Z,99734.00
2023-04-11T01:41:32.892Z,99736.00
2023-04-11T01:44:07.473Z,99743.00
2023-04-11T01:46:41.794Z,99735.00
2023-04-11T01:49:16.895Z,99724.00
2023-04-11T01:51:50.602Z,99722.00
2023-04-11T01:54:26.145Z,99733.00
2023-04-11T01:57:00.001Z,99732.00
2023-04-11T01:59:33.512Z,99731.00
2023-04-11T02:02:07.895Z,99733.00
2023-04-11T02:04:41.571Z,99733.00
2023-04-11T02:07:16.314Z,99733.00
2023-04-11T02:09:51.268Z,99749.00
2023-04-11T02:12:24.895Z,99751.00
2023-04-11T02:14:58.915Z,99746.00
2023-04-11T02:17:32.731Z,99759.00
2023-04-11T02:20:08.432Z,99767.00
2023-04-11T02:22:43.682Z,99762.00
2023-04-11T02:25:19.147Z,99760.00
2023-04-11T02:27:52.789Z,99750.00
2023-04-11T02:30:26.428Z,99761.00
2023-04-11T02:33:02.108Z,99766.00
2023-04-11T02:35:35.668Z,99765.00
2023-04-11T02:38:09.183Z,99761.00
2023-04-11T02:40:44.588Z,99764.00
2023-04-11T02:43:19.379Z,99763.00
2023-04-11T02:46:02.015Z,99748.00
2023-04-11T02:48:39.432Z,99761.00
2023-04-11T02:51:15.582Z,99768.00
2023-04-11T02:53:49.590Z,99772.00
2023-04-11T02:56:24.651Z,99771.00
2023-04-11T02:58:58.921Z,99768.00
2023-04-11T03:01:33.031Z,99764.00
2023-04-11T03:04:07.259Z,99768.00
2023-04-11T03:06:41.211Z,99770.00
2023-04-11T03:09:15.425Z,99776.00
2023-04-11T03:11:50.965Z,99770.00
2023-04-11T03:14:25.053Z,99781.00
2023-04-11T03:16:58.538Z,99779.00
2023-04-11T03:19:32.082Z,99772.00
2023-04-11T03:22:06.971Z,99778.00
2023-04-11T03:24:41.340Z,99779.00
2023-04-11T03:27:16.611Z,99779.00
2023-04-11T03:29:50.541Z,99773.00
2023-04-11T03:32:24.481Z,99775.00
2023-04-11T03:35:01.953Z,99773.00
2023-04-11T03:37:36.870Z,99775.00
2023-04-11T03:40:12.382Z,99780.00
2023-04-11T03:42:47.486Z,99778.00
2023-04-11T03:45:21.654Z,99778.00
2023-04-11T03:47:55.744Z,99761.00
2023-04-11T03:50:29.947Z,99787.00
2023-04-11T03:53:04.070Z,99781.00
2023-04-11T03:55:38.455Z,99788.00
2023-04-11T03:58:13.369Z,99795.00
2023-04-11T04:00:48.232Z,99804.00
2023-04-11T04:03:22.738Z,99804.00
2023-04-11T04:05:56.942Z,99801.00
2023-04-11T04:08:30.934Z,99808.00
2023-04-11T04:11:04.989Z,99805.00
2023-04-11T04:13:40.944Z,99806.00
2023-04-11T04:16:14.854Z,99802.00
2023-04-11T04:18:48.965Z,99810.00
2023-04-11T04:21:26.876Z,99796.00
2023-04-11T04:24:03.878Z,99818.00
2023-04-11T04:26:38.079Z,99826.00
2023-04-11T04:29:13.093Z,99822.00
2023-04-11T04:31:50.645Z,99826.00
2023-04-11T04:34:24.677Z,99823.00
2023-04-11T04:36:59.766Z,99838.00
2023-04-11T04:39:34.400Z,99827.00
2023-04-11T04:42:08.350Z,99840.00
2023-04-11T04:44:43.369Z,99841.00
2023-04-11T04:47:17.408Z,99827.00
2023-04-11T04:49:51.331Z,99839.00
2023-04-11T04:52:26.157Z,99840.00
2023-04-11T04:55:01.620Z,99824.00
2023-04-11T04:57:35.698Z,99833.00
2023-04-11T05:00:14.216Z,99832.00
2023-04-11T05:02:48.962Z,99851.00
2023-04-11T05:05:22.762Z,99855.00
2023-04-11T05:07:56.723Z,99856.00
2023-04-11T05:10:30.586Z,99869.00
2023-04-11T05:13:04.548Z,99858.00
2023-04-11T05:15:40.040Z,99868.00
2023-04-11T05:18:13.685Z,99847.00
2023-04-11T05:20:47.320Z,99863.00
2023-04-11T05:23:21.360Z,99869.00
2023-04-11T05:25:54.991Z,99883.00
2023-04-11T05:28:28.513Z,99869.00
2023-04-11T05:31:03.645Z,99876.00
2023-04-11T05:33:38.488Z,99869.00
2023-04-11T05:36:14.571Z,99879.00
2023-04-11T05:38:49.228Z,99882.00
2023-04-11T05:41:23.375Z,99891.00
2023-04-11T05:43:59.165Z,99884.00
2023-04-11T05:46:37.057Z,99891.00
2023-04-11T05:49:11.915Z,99900.00
2023-04-11T05:51:45.800Z,99891.00
2023-04-11T05:54:34.321Z,99893.00
2023-04-11T05:57:08.973Z,99900.00
2023-04-11T05:59:43.034Z,99902.00
2023-04-11T06:02:18.401Z,99911.00
2023-04-11T06:04:53.821Z,99892.00
2023-04-11T06:07:27.797Z,99908.00
2023-04-11T06:10:01.417Z,99913.00
2023-04-11T06:12:35.264Z,99918.00
2023-04-11T06:15:13.946Z,99915.00
2023-04-11T06:17:49.119Z,99914.00
2023-04-11T06:20:23.930Z,99936.00
2023-04-11T06:22:57.745Z,99905.00
2023-04-11T06:25:31.500Z,99937.00
2023-04-11T06:28:05.772Z,99943.00
2023-04-11T06:30:43.477Z,99941.00
2023-04-11T06:33:18.485Z,99939.00
2023-04-11T06:35:52.191Z,99958.00
2023-04-11T06:38:25.482Z,99957.00
2023-04-11T06:40:59.241Z,99969.00
2023-04-11T06:43:33.084Z,99972.00
2023-04-11T06:46:08.430Z,99960.00
2023-04-11T06:48:43.813Z,99968.00
2023-04-11T06:51:17.309Z,99969.00
2023-04-11T06:53:51.143Z,99973.00
2023-04-11T06:56:24.991Z,99986.00
2023-04-11T06:58:58.851Z,99976.00
2023-04-11T07:01:35.738Z,99989.00
2023-04-11T07:04:11.306Z,99982.00
2023-04-11T07:06:45.452Z,99989.00
2023-04-11T07:09:19.217Z,99991.00
2023-04-11T07:11:52.954Z,100005.00
2023-04-11T07:14:26.922Z,99999.00
2023-04-11T07:17:01.489Z,100017.00
2023-04-11T07:19:37.535Z,100025.00
2023-04-11T07:22:11.460Z,100019.00
2023-04-11T07:24:47.044Z,100024.00
2023-04-11T07:27:21.755Z,100024.00
2023-04-11T07:29:56.341Z,100028.00
2023-04-11T07:32:29.732Z,100016.00
2023-04-11T07:35:04.601Z,100022.00
2023-04-11T07:37:38.795Z,100033.00
2023-04-11T07:40:14.654Z,100032.00
2023-04-11T07:42:48.234Z,100049.00
2023-04-11T07:45:22.299Z,100039.00
2023-04-11T07:47:56.036Z,100038.00
2023-04-11T07:50:30.901Z,100035.00
2023-04-11T07:53:04.619Z,100030.00
2023-04-11T07:55:38.889Z,100018.00
2023-04-11T07:58:12.701Z,100028.00
2023-04-11T08:00:47.155Z,100031.00
2023-04-11T08:03:23.569Z,100038.00
2023-04-11T08:05:59.600Z,100045.00
2023-04-11T08:08:34.819Z,100036.00
2023-04-11T08:11:09.800Z,100037.00
2023-04-11T08:13:44.896Z,100044.00
2023-04-11T08:16:20.035Z,100047.00
2023-04-11T08:18:54.612Z,100043.00
2023-04-11T08:21:32.131Z,100042.00
2023-04-11T08:24:06.400Z,100044.00
2023-04-11T08:26:43.515Z,100051.00
2023-04-11T08:29:18.246Z,100061.00
2023-04-11T08:31:52.525Z,100039.00
2023-04-11T08:34:27.713Z,100057.00
2023-04-11T08:37:05.616Z,100053.00
2023-04-11T08:39:42.047Z,100059.00
2023-04-11T08:42:27.272Z,100052.00
2023-04-11T08:45:03.487Z,100082.00
2023-04-11T08:47:38.147Z,100073.00
2023-04-11T08:50:14.769Z,100073.00
2023-04-11T08:52:55.982Z,100000.00
2023-04-11T08:55:29.890Z,100065.00
2023-04-11T08:58:05.049Z,100064.00
2023-04-11T09:00:39.233Z,100075.00
2023-04-11T09:03:14.924Z,100070.00
2023-04-11T09:05:49.942Z,100064.00
2023-04-11T09:08:40.475Z,100087.00
2023-04-11T09:11:14.708Z,100079.00
2023-04-11T09:13:49.058Z,100087.00
2023-04-11T09:16:23.640Z,100094.00
2023-04-11T09:18:59.076Z,100097.00
2023-04-11T09:21:33.433Z,100105.00
2023-04-11T09:24:18.465Z,100087.00
2023-04-11T09:27:07.006Z,100089.00
2023-04-11T09:29:43.548Z,100082.00
2023-04-11T09:32:33.444Z,100094.00
2023-04-11T09:35:15.926Z,100091.00
2023-04-11T09:37:52.408Z,100121.00
2023-04-11T09:40:31.985Z,100098.00
2023-04-11T09:43:07.475Z,100084.00
2023-04-11T09:45:53.676Z,100104.00
2023-04-11T09:48:43.403Z,100099.00
2023-04-11T09:51:35.173Z,100109.00
2023-04-11T09:54:12.769Z,100092.00
2023-04-11T09:56:50.502Z,100090.00
2023-04-11T09:59:28.107Z,100091.00
2023-04-11T10:02:02.581Z,100090.00
2023-04-11T10:04:36.965Z,100091.00
2023-04-11T10:07:17.132Z,100086.00
2023-04-11T10:09:51.573Z,100089.00
2023-04-11T10:12:36.573Z,100097.00
2023-04-11T10:15:11.798Z,100115.00
2023-04-11T10:18:12.737Z,100107.00
2023-04-11T10:20:54.498Z,100117.00
2023-04-11T10:23:28.526Z,100113.00
2023-04-11T10:26:03.494Z,100118.00
2023-04-11T10:28:41.446Z,100122.00
2023-04-11T10:31:17.691Z,100097.00
2023-04-11T10:34:16.143Z,100132.00
2023-04-11T10:37:08.960Z,100116.00
2023-04-11T10:40:10.554Z,100113.00
2023-04-11T10:42:46.715Z,100117.00
2023-04-11T10:45:26.044Z,100118.00
2023-04-11T10:48:07.760Z,100130.00
2023-04-11T10:51:26.367Z,100122.00
2023-04-11T10:54:03.115Z,100120.00
2023-04-11T10:56:57.743Z,100130.00
2023-04-11T10:59:59.997Z,100113.00
2023-04-11T11:02:43.027Z,100122.00
2023-04-11T11:05:33.850Z,100127.00
2023-04-11T11:08:08.931Z,100131.00
2023-04-11T11:10:46.664Z,100125.00
2023-04-11T11:13:20.489Z,100110.00
2023-04-11T11:15:54.293Z,100111.00
2023-04-11T11:18:29.725Z,100101.00
2023-04-11T11:21:05.810Z,100121.00
2023-04-11T11:23:41.350Z,100103.00
2023-04-11T11:26:15.660Z,100112.00
2023-04-11T11:28:50.381Z,100119.00
2023-04-11T11:31:37.004Z,100110.00
2023-04-11T11:36:51.675Z,100130.00
2023-04-11T11:39:27.655Z,100124.00
2023-04-11T11:42:02.767Z,100128.00
2023-04-11T11:44:36.616Z,100140.00
2023-04-11T11:47:15.343Z,100122.00
2023-04-11T11:49:53.406Z,100140.00
2023-04-11T11:52:34.473Z,100160.00
2023-04-11T11:55:30.108Z,100151.00
2023-04-11T11:58:06.147Z,100151.00
2023-04-11T12:00:42.602Z,100146.00
2023-04-11T12:03:22.576Z,100141.00
2023-04-11T12:06:00.569Z,100141.00
2023-04-11T12:08:36.948Z,100149.00
2023-04-11T12:11:16.966Z,100143.00
2023-04-11T12:13:55.754Z,100141.00
2023-04-11T12:16:29.745Z,100153.00
2023-04-11T12:19:06.442Z,100141.00
2023-04-11T12:21:42.552Z,100142.00
2023-04-11T12:24:16.680Z,100141.00
2023-04-11T12:27:05.734Z,100160.00
2023-04-11T12:29:41.054Z,100146.00
2023-04-11T12:32:16.093Z,100147.00
2023-04-11T12:34:52.755Z,100146.00
2023-04-11T12:37:28.717Z,100151.00
2023-04-11T12:40:07.809Z,100152.00
2023-04-11T12:42:53.179Z,100151.00
2023-04-11T12:45:32.848Z,100151.00
2023-04-11T12:48:08.903Z,100149.00
2023-04-11T12:50:42.850Z,100152.00
2023-04-11T12:53:18.640Z,100158.00
2023-04-11T12:55:52.154Z,100155.00
2023-04-11T12:58:29.161Z,100157.00
2023-04-11T13:01:03.394Z,100174.00
2023-04-11T13:03:38.926Z,100158.00
2023-04-11T13:06:12.911Z,100142.00
2023-04-11T13:08:48.730Z,100171.00
2023-04-11T13:11:23.023Z,100124.00
2023-04-11T13:13:56.933Z,100163.00
2023-04-11T13:16:34.116Z,100170.00
2023-04-11T13:19:08.483Z,100161.00
2023-04-11T13:21:43.246Z,100169.00
2023-04-11T13:24:19.217Z,100157.00
2023-04-11T13:26:53.783Z,100170.00
2023-04-11T13:29:28.233Z,100170.00
2023-04-11T13:32:03.755Z,100166.00
2023-04-11T13:34:37.771Z,100161.00
2023-04-11T13:37:12.181Z,100168.00
2023-04-11T13:39:47.871Z,100180.00
2023-04-11T13:42:24.968Z,100166.00
2023-04-11T13:45:00.621Z,100165.00
2023-04-11T13:47:37.861Z,100155.00
2023-04-11T13:50:13.042Z,100172.00
2023-04-11T13:52:47.198Z,100169.00
2023-04-11T13:55:23.478Z,100156.00
2023-04-11T13:57:56.938Z,100170.00
2023-04-11T14:00:32.708Z,100164.00
2023-04-11T14:03:06.768Z,100166.00
2023-04-11T14:05:40.491Z,100165.00
2023-04-11T14:08:14.802Z,100157.00
2023-04-11T14:10:49.960Z,100161.00
2023-04-11T14:13:24.188Z,100164.00
2023-04-11T14:16:08.116Z,100158.00
2023-04-11T14:18:43.633Z,100167.00
2023-04-11T14:21:17.252Z,100168.00
2023-04-11T14:23:51.452Z,100156.00
2023-04-11T14:26:26.714Z,100163.00
2023-04-11T14:29:00.269Z,100151.00
2023-04-11T14:31:34.074Z,100152.00
2023-04-11T14:34:07.795Z,100148.00
2023-04-11T14:36:42.373Z,100158.00
2023-04-11T14:39:16.253Z,100154.00
2023-04-11T14:41:51.344Z,100133.00
2023-04-11T14:44:25.068Z,100143.00
2023-04-11T14:46:59.097Z,100141.00
2023-04-11T14:49:32.827Z,100140.00
2023-04-11T14:52:07.040Z,100144.00
2023-04-11T14:54:41.533Z,100126.00
2023-04-11T14:57:16.832Z,100125.00
2023-04-11T14:59:50.989Z,100128.00
2023-04-11T15:02:27.410Z,100129.00
2023-04-11T15:05:03.962Z,100094.00
2023-04-11T15:07:38.045Z,100118.00
2023-04-11T15:10:12.969Z,100114.00
2023-04-11T15:12:48.325Z,100126.00
2023-04-11T15:15:22.278Z,100125.00
2023-04-11T15:18:22.193Z,100120.00
2023-04-11T15:21:03.593Z,100129.00
2023-04-11T15:23:37.403Z,100120.00
2023-04-11T15:26:11.386Z,100124.00
2023-04-11T15:28:48.238Z,100131.00
2023-04-11T15:31:26.988Z,100108.00
2023-04-11T15:34:04.285Z,100122.00
2023-04-11T15:36:39.933Z,100111.00
2023-04-11T15:39:13.710Z,100119.00
2023-04-11T15:41:47.824Z,100115.00
2023-04-11T15:44:23.118Z,100095.00
2023-04-11T15:46:57.222Z,100105.00
2023-04-11T15:49:30.832Z,100090.00
2023-04-11T15:52:04.517Z,100102.00
2023-04-11T15:54:38.348Z,100080.00
2023-04-11T15:57:12.427Z,100100.00
2023-04-11T15:59:47.626Z,100093.00
2023-04-11T16:02:21.808Z,100105.00
2023-04-11T16:04:56.321Z,100092.00
2023-04-11T16:07:30.181Z,100097.00
2023-04-11T16:10:05.213Z,100080.00
2023-04-11T16:12:40.609Z,100100.00
2023-04-11T16:15:16.141Z,100088.00
2023-04-11T16:17:50.539Z,100091.00
2023-04-11T16:20:24.375Z,100092.00
2023-04-11T16:22:58.077Z,100095.00
2023-04-11T16:25:32.104Z,100081.00
2023-04-11T16:28:06.348Z,100089.00
2023-04-11T16:30:42.274Z,100086.00
2023-04-11T16:33:16.098Z,100082.00
2023-04-11T16:35:51.107Z,100082.00
2023-04-11T16:38:25.909Z,100076.00
2023-04-11T16:41:01.887Z,100076.00
2023-04-11T16:43:35.318Z,100081.00
2023-04-11T16:46:15.728Z,100083.00
2023-04-11T16:48:50.361Z,100090.00
2023-04-11T16:51:24.496Z,100079.00
2023-04-11T16:53:59.060Z,100083.00
2023-04-11T16:56:33.763Z,100073.00
2023-04-11T16:59:10.585Z,100074.00
2023-04-11T17:01:46.879Z,100089.00
2023-04-11T17:04:22.605Z,100087.00
2023-04-11T17:06:57.780Z,100091.00
2023-04-11T17:09:35.035Z,100084.00
2023-04-11T17:12:08.768Z,100085.00
2023-04-11T17:14:42.788Z,100091.00
2023-04-11T17:17:18.397Z,100084.00
2023-04-11T17:19:52.837Z,100078.00
2023-04-11T17:22:27.041Z,100066.00
2023-04-11T17:25:01.025Z,100079.00
2023-04-11T17:27:34.794Z,100075.00
2023-04-11T17:30:12.248Z,100079.00
2023-04-11T17:32:50.246Z,100080.00
2023-04-11T17:35:24.059Z,100070.00
2023-04-11T17:37:58.386Z,100074.00
2023-04-11T17:40:32.802Z,100065.00
2023-04-11T17:43:07.238Z,100074.00
2023-04-11T17:45:44.294Z,100062.00
2023-04-11T17:48:20.699Z,100055.00
2023-04-11T17:50:54.804Z,100061.00
2023-04-11T17:53:28.455Z,100057.00
2023-04-11T17:56:06.315Z,100060.00
2023-04-11T17:58:44.540Z,100057.00
2023-04-11T18:01:18.657Z,100044.00
2023-04-11T18:03:57.278Z,100052.00
2023-04-11T18:06:34.567Z,100052.00
2023-04-11T18:09:08.542Z,100051.00
2023-04-11T18:11:44.398Z,100052.00
2023-04-11T18:14:18.400Z,100054.00
2023-04-11T18:16:52.594Z,100043.00
2023-04-11T18:19:27.760Z,100043.00
2023-04-11T18:22:01.562Z,100052.00
2023-04-11T18:24:36.870Z,100029.00
2023-04-11T18:27:11.970Z,100029.00
2023-04-11T18:29:47.325Z,100045.00
2023-04-11T18:32:24.482Z,100049.00
2023-04-11T18:35:04.101Z,100052.00
2023-04-11T18:37:40.909Z,100046.00
2023-04-11T18:40:16.167Z,100038.00
2023-04-11T18:42:53.747Z,100049.00
2023-04-11T18:45:28.726Z,100051.00
2023-04-11T18:48:03.329Z,100040.00
2023-04-11T18:50:43.031Z,100037.00
2023-04-11T18:53:17.029Z,100023.00
2023-04-11T18:55:51.010Z,100031.00
2023-04-11T18:58:26.406Z,100034.00
2023-04-11T19:01:13.467Z,100017.00
2023-04-11T19:03:51.165Z,100022.00
2023-04-11T19:06:27.216Z,100043.00
2023-04-11T19:09:00.988Z,100021.00
2023-04-11T19:11:35.442Z,100022.00
2023-04-11T19:14:11.883Z,100037.00
2023-04-11T19:16:47.008Z,100027.00
2023-04-11T19:19:23.116Z,100021.00
2023-04-11T19:21:58.797Z,100024.00
2023-04-11T19:24:33.988Z,100015.00
2023-04-11T19:27:08.554Z,100019.00
2023-04-11T19:29:41.860Z,100012.00
2023-04-11T19:32:17.769Z,100015.00
2023-04-11T19:34:52.627Z,100018.00
2023-04-11T19:37:30.312Z,100017.00
2023-04-11T19:40:07.131Z,100008.00
2023-04-11T19:42:41.363Z,99996.00
2023-04-11T19:45:15.310Z,99994.00
2023-04-11T19:47:49.852Z,99994.00
2023-04-11T19:50:23.751Z,99995.00
2023-04-11T19:53:01.839Z,99983.00
2023-04-11T19:55:37.680Z,99994.00
2023-04-11T19:58:12.087Z,99984.00
2023-04-11T20:00:46.120Z,99984.00
2023-04-11T20:03:21.342Z,99981.00
2023-04-11T20:05:56.950Z,99979.00
2023-04-11T20:08:32.587Z,99967.00
2023-04-11T20:11:06.538Z,99968.00
2023-04-11T20:13:40.500Z,99938.00
2023-04-11T20:16:14.362Z,99962.00
2023-04-11T20:18:48.447Z,99953.00
2023-04-11T20:21:22.816Z,99948.00
2023-04-11T20:23:58.470Z,99943.00
2023-04-11T20:26:32.526Z,99941.00
2023-04-11T20:29:06.556Z,99925.00
2023-04-11T20:31:42.197Z,99926.00
2023-04-11T20:34:16.121Z,99922.00
2023-04-11T20:36:50.086Z,99920.00
2023-04-11T20:39:25.709Z,99909.00
2023-04-11T20:42:01.837Z,99903.00
2023-04-11T20:44:36.576Z,99900.00
2023-04-11T20:47:10.436Z,99891.00
2023-04-11T20:49:45.815Z,99882.00
2023-04-11T20:52:20.364Z,99892.00
2023-04-11T20:54:55.928Z,99888.00
2023-04-11T20:57:31.172Z,99884.00
2023-04-11T21:00:12.605Z,99882.00
2023-04-11T21:02:50.450Z,99883.00
2023-04-11T21:05:25.242Z,99879.00
2023-04-11T21:07:59.276Z,99869.00
2023-04-11T21:10:34.206Z,99879.00
2023-04-11T21:13:07.756Z,99862.00
2023-04-11T21:15:41.433Z,99858.00
2023-04-11T21:18:15.255Z,99863.00
2023-04-11T21:20:49.414Z,99855.00
2023-04-11T21:23:23.422Z,99859.00
2023-04-11T21:25:58.620Z,99852.00
2023-04-11T21:28:33.002Z,99848.00
2023-04-11T21:31:08.690Z,99840.00
2023-04-11T21:33:42.836Z,99826.00
2023-04-11T21:36:17.001Z,99828.00
2023-04-11T21:38:50.972Z,99829.00
2023-04-11T21:41:26.294Z,99826.00
2023-04-11T21:44:00.863Z,99823.00
2023-04-11T21:46:34.987Z,99821.00
2023-04-11T21:49:09.141Z,99817.00
2023-04-11T21:51:43.053Z,99821.00
2023-04-11T21:54:16.643Z,99821.00
2023-04-11T21:56:52.154Z,99822.00
2023-04-11T21:59:26.023Z,99809.00
2023-04-11T22:01:59.956Z,99799.00
2023-04-11T22:04:41.301Z,99810.00
2023-04-11T22:07:26.699Z,99800.00
2023-04-11T22:10:09.500Z,99797.00
2023-04-11T22:12:47.108Z,99788.00
2023-04-11T22:15:21.098Z,99787.00
2023-04-11T22:17:56.822Z,99788.00
2023-04-11T22:20:30.981Z,99788.00
2023-04-11T22:23:06.622Z,99781.00
2023-04-11T22:25:42.869Z,99776.00
2023-04-11T22:28:18.506Z,99760.00
2023-04-11T22:30:54.443Z,99754.00
2023-04-11T22:33:29.040Z,99752.00
2023-04-11T22:36:03.103Z,99756.00
2023-04-11T22:38:38.436Z,99742.00
2023-04-11T22:41:16.850Z,99734.00
2023-04-11T22:43:52.012Z,99726.00
2023-04-11T22:46:25.934Z,99722.00
2023-04-11T22:48:59.678Z,99711.00
2023-04-11T22:51:34.121Z,99714.00
2023-04-11T22:54:08.228Z,99710.00
2023-04-11T22:56:42.291Z,99706.00
2023-04-11T22:59:17.440Z,99698.00
2023-04-11T23:01:54.426Z,99703.00
2023-04-11T23:04:28.932Z,99695.00
2023-04-11T23:07:03.879Z,99688.00
2023-04-11T23:09:37.437Z,99691.00
2023-04-11T23:12:11.464Z,99684.00
2023-04-11T23:14:46.956Z,99675.00
2023-04-11T23:17:20.818Z,99679.00
2023-04-11T23:19:54.836Z,99666.00
2023-04-11T23:22:28.729Z,99668.00
2023-04-11T23:25:03.252Z,99662.00
2023-04-11T23:27:38.027Z,99655.00
2023-04-11T23:30:15.220Z,99656.00
2023-04-11T23:32:53.558Z,99646.00
2023-04-11T23:35:26.963Z,99620.00
2023-04-11T23:38:02.146Z,99626.00
2023-04-11T23:40:36.092Z,99620.00
2023-04-11T23:43:10.164Z,99614.00
2023-04-11T23:45:46.958Z,99601.00
2023-04-11T23:48:21.096Z,99608.00
2023-04-11T23:50:54.842Z,99597.00
2023-04-11T23:53:29.417Z,99595.00
2023-04-11T23:56:03.306Z,99586.00
2023-04-11T23:58:36.781Z,99576.00
